Dati Storici

Data ora Umidita' aria (%) Temperatura aria (°C) Rad globale (W/m²) Gonioanemometro (°) Tacoanemometro (m/s) Pioggia (mm)
19-10-2012 14:00 62 % 18.766 493.177 263.206 1.637 0
19-10-2012 13:50 63.2 % 18.155 458.536 292.765 1.455 0
19-10-2012 13:40 63.9 % 18.087 288.168 176.528 0.251 0
19-10-2012 13:30 63.4 % 18.051 269.213 250.918 1.128 0
19-10-2012 13:20 63.3 % 18.198 264.25 224.133 1.561 0
19-10-2012 13:10 62.4 % 18.204 306.604 218.566 1.629 0
19-10-2012 13:00 62.7 % 18.254 241.883 242.385 0.955 0
19-10-2012 12:50 62.4 % 18.158 487.543 289.683 1.118 0
19-10-2012 12:40 63.2 % 17.969 549.133 279.611 0.714 0
19-10-2012 12:30 63.3 % 18.027 399.61 265.523 2.063 0
19-10-2012 12:20 63.4 % 17.615 493.059 305.627 2.293 0
19-10-2012 12:10 63.6 % 18.178 422.497 209.501 2.978 0
19-10-2012 12:00 65 % 17.868 485.346 320.032 2.171 0
19-10-2012 11:50 65.6 % 18.334 445.579 328.161 1.964 0
19-10-2012 11:40 67.4 % 17.22 419.755 327.12 1.637 0
19-10-2012 11:30 66 % 17.401 517.15 264.754 0.893 0
19-10-2012 11:20 67.2 % 17.507 450.317 240.792 1.028 0
19-10-2012 11:10 68.3 % 16.589 504.74 305.717 2.142 0
19-10-2012 11:00 68.2 % 17.24 450.902 334.163 1.231 0
19-10-2012 10:50 69.7 % 16.914 472.147 263.562 0.956 0

I dati sono presentati in modo automatico a scopo informativo. In seguito a verifica i dati possono subire modifiche o essere invalidati e non riportati negli archivi definitivi.